sensor_id;sensor_type;location;lat;lon;timestamp;P1;durP1;ratioP1;P2;durP2;ratioP2
41043;SDS011;51680;49.806;18.774;2023-04-25T00:01:43;7.97;;;4.32;;
41043;SDS011;51680;49.806;18.774;2023-04-25T00:04:46;7.85;;;3.60;;
41043;SDS011;51680;49.806;18.774;2023-04-25T00:07:49;7.80;;;4.00;;
41043;SDS011;51680;49.806;18.774;2023-04-25T00:10:51;8.02;;;4.03;;
41043;SDS011;51680;49.806;18.774;2023-04-25T00:13:53;6.88;;;3.85;;
41043;SDS011;51680;49.806;18.774;2023-04-25T00:16:54;5.70;;;3.55;;
41043;SDS011;51680;49.806;18.774;2023-04-25T00:19:58;6.50;;;3.80;;
41043;SDS011;51680;49.806;18.774;2023-04-25T00:23:00;9.40;;;3.65;;
41043;SDS011;51680;49.806;18.774;2023-04-25T00:26:02;5.80;;;3.50;;
41043;SDS011;51680;49.806;18.774;2023-04-25T00:29:04;6.13;;;3.67;;
41043;SDS011;51680;49.806;18.774;2023-04-25T00:32:06;5.93;;;3.30;;
41043;SDS011;51680;49.806;18.774;2023-04-25T00:35:09;5.38;;;3.40;;
41043;SDS011;51680;49.806;18.774;2023-04-25T00:38:11;8.85;;;3.42;;
41043;SDS011;51680;49.806;18.774;2023-04-25T00:41:13;8.38;;;3.50;;
41043;SDS011;51680;49.806;18.774;2023-04-25T00:44:15;6.30;;;3.40;;
41043;SDS011;51680;49.806;18.774;2023-04-25T00:47:18;8.82;;;3.58;;
41043;SDS011;51680;49.806;18.774;2023-04-25T00:50:22;6.20;;;3.72;;
41043;SDS011;51680;49.806;18.774;2023-04-25T00:53:24;6.65;;;3.60;;
41043;SDS011;51680;49.806;18.774;2023-04-25T00:56:27;6.22;;;3.63;;
41043;SDS011;51680;49.806;18.774;2023-04-25T00:59:29;7.22;;;3.45;;
41043;SDS011;51680;49.806;18.774;2023-04-25T01:02:32;5.68;;;3.42;;
41043;SDS011;51680;49.806;18.774;2023-04-25T01:05:35;6.32;;;3.28;;
41043;SDS011;51680;49.806;18.774;2023-04-25T01:08:37;6.03;;;3.97;;
41043;SDS011;51680;49.806;18.774;2023-04-25T01:11:39;4.18;;;3.20;;
41043;SDS011;51680;49.806;18.774;2023-04-25T01:14:41;6.03;;;3.95;;
41043;SDS011;51680;49.806;18.774;2023-04-25T01:17:43;7.07;;;4.20;;
41043;SDS011;51680;49.806;18.774;2023-04-25T01:20:46;6.97;;;3.72;;
41043;SDS011;51680;49.806;18.774;2023-04-25T01:23:53;6.65;;;3.80;;
41043;SDS011;51680;49.806;18.774;2023-04-25T01:26:55;6.45;;;4.10;;
41043;SDS011;51680;49.806;18.774;2023-04-25T01:29:58;6.83;;;3.70;;
41043;SDS011;51680;49.806;18.774;2023-04-25T01:33:01;5.72;;;3.78;;
41043;SDS011;51680;49.806;18.774;2023-04-25T01:36:05;5.15;;;3.60;;
41043;SDS011;51680;49.806;18.774;2023-04-25T01:39:10;5.75;;;3.88;;
41043;SDS011;51680;49.806;18.774;2023-04-25T01:42:12;8.10;;;3.67;;
41043;SDS011;51680;49.806;18.774;2023-04-25T01:45:14;8.45;;;4.18;;
41043;SDS011;51680;49.806;18.774;2023-04-25T01:48:16;6.00;;;3.53;;
41043;SDS011;51680;49.806;18.774;2023-04-25T01:51:18;5.43;;;3.30;;
41043;SDS011;51680;49.806;18.774;2023-04-25T01:54:21;6.80;;;3.97;;
41043;SDS011;51680;49.806;18.774;2023-04-25T01:57:23;6.32;;;3.58;;
41043;SDS011;51680;49.806;18.774;2023-04-25T02:00:25;4.80;;;3.10;;
41043;SDS011;51680;49.806;18.774;2023-04-25T02:03:27;7.43;;;3.50;;
41043;SDS011;51680;49.806;18.774;2023-04-25T02:06:30;5.60;;;3.15;;
41043;SDS011;51680;49.806;18.774;2023-04-25T02:09:34;4.43;;;3.15;;
41043;SDS011;51680;49.806;18.774;2023-04-25T02:12:39;5.22;;;2.88;;
41043;SDS011;51680;49.806;18.774;2023-04-25T02:15:53;5.57;;;3.17;;
41043;SDS011;51680;49.806;18.774;2023-04-25T02:18:55;5.63;;;3.17;;
41043;SDS011;51680;49.806;18.774;2023-04-25T02:21:57;7.00;;;3.30;;
41043;SDS011;51680;49.806;18.774;2023-04-25T02:25:00;6.47;;;3.05;;
41043;SDS011;51680;49.806;18.774;2023-04-25T02:28:02;4.65;;;2.90;;
41043;SDS011;51680;49.806;18.774;2023-04-25T02:31:04;5.35;;;2.60;;
41043;SDS011;51680;49.806;18.774;2023-04-25T02:34:06;5.00;;;2.38;;
41043;SDS011;51680;49.806;18.774;2023-04-25T02:37:10;7.80;;;2.75;;
41043;SDS011;51680;49.806;18.774;2023-04-25T02:40:14;5.20;;;2.38;;
41043;SDS011;51680;49.806;18.774;2023-04-25T02:43:15;5.30;;;2.43;;
41043;SDS011;51680;49.806;18.774;2023-04-25T02:46:17;4.28;;;2.22;;
41043;SDS011;51680;49.806;18.774;2023-04-25T02:49:20;6.32;;;2.75;;
41043;SDS011;51680;49.806;18.774;2023-04-25T02:52:22;3.83;;;2.45;;
41043;SDS011;51680;49.806;18.774;2023-04-25T02:55:34;4.63;;;2.15;;
41043;SDS011;51680;49.806;18.774;2023-04-25T02:58:37;6.32;;;2.53;;
41043;SDS011;51680;49.806;18.774;2023-04-25T03:01:39;4.60;;;2.22;;
41043;SDS011;51680;49.806;18.774;2023-04-25T03:04:41;6.10;;;2.10;;
41043;SDS011;51680;49.806;18.774;2023-04-25T03:07:43;3.88;;;2.50;;
41043;SDS011;51680;49.806;18.774;2023-04-25T03:10:47;9.65;;;2.47;;
41043;SDS011;51680;49.806;18.774;2023-04-25T03:13:50;4.68;;;2.20;;
41043;SDS011;51680;49.806;18.774;2023-04-25T03:16:53;7.65;;;2.38;;
41043;SDS011;51680;49.806;18.774;2023-04-25T03:19:57;3.25;;;2.20;;
41043;SDS011;51680;49.806;18.774;2023-04-25T03:22:59;4.07;;;2.30;;
41043;SDS011;51680;49.806;18.774;2023-04-25T03:26:04;4.30;;;2.30;;
41043;SDS011;51680;49.806;18.774;2023-04-25T03:29:05;3.20;;;2.30;;
41043;SDS011;51680;49.806;18.774;2023-04-25T03:32:09;4.97;;;2.55;;
41043;SDS011;51680;49.806;18.774;2023-04-25T03:35:11;3.60;;;2.20;;
41043;SDS011;51680;49.806;18.774;2023-04-25T03:38:12;7.07;;;2.03;;
41043;SDS011;51680;49.806;18.774;2023-04-25T03:41:16;5.05;;;2.15;;
41043;SDS011;51680;49.806;18.774;2023-04-25T03:44:25;5.63;;;2.10;;
41043;SDS011;51680;49.806;18.774;2023-04-25T03:47:27;4.18;;;2.10;;
41043;SDS011;51680;49.806;18.774;2023-04-25T03:50:29;3.15;;;1.98;;
41043;SDS011;51680;49.806;18.774;2023-04-25T03:53:31;3.33;;;2.00;;
41043;SDS011;51680;49.806;18.774;2023-04-25T03:57:03;9.75;;;2.22;;
41043;SDS011;51680;49.806;18.774;2023-04-25T04:00:09;4.95;;;2.17;;
41043;SDS011;51680;49.806;18.774;2023-04-25T04:03:14;5.43;;;2.40;;
41043;SDS011;51680;49.806;18.774;2023-04-25T04:06:16;4.63;;;2.28;;
41043;SDS011;51680;49.806;18.774;2023-04-25T04:09:22;2.90;;;1.90;;
41043;SDS011;51680;49.806;18.774;2023-04-25T04:12:27;6.03;;;3.15;;
41043;SDS011;51680;49.806;18.774;2023-04-25T04:15:28;4.60;;;2.50;;
41043;SDS011;51680;49.806;18.774;2023-04-25T04:21:36;4.82;;;2.17;;
41043;SDS011;51680;49.806;18.774;2023-04-25T04:24:39;5.95;;;2.45;;
41043;SDS011;51680;49.806;18.774;2023-04-25T04:27:46;5.10;;;2.55;;
41043;SDS011;51680;49.806;18.774;2023-04-25T04:30:57;3.85;;;2.35;;
41043;SDS011;51680;49.806;18.774;2023-04-25T04:34:01;5.00;;;3.05;;
41043;SDS011;51680;49.806;18.774;2023-04-25T04:37:04;7.65;;;3.70;;
41043;SDS011;51680;49.806;18.774;2023-04-25T04:40:08;3.92;;;2.75;;
41043;SDS011;51680;49.806;18.774;2023-04-25T04:43:25;4.93;;;2.95;;
41043;SDS011;51680;49.806;18.774;2023-04-25T04:46:40;6.47;;;3.03;;
41043;SDS011;51680;49.806;18.774;2023-04-25T04:49:49;4.93;;;2.97;;
41043;SDS011;51680;49.806;18.774;2023-04-25T04:53:04;4.57;;;2.65;;
41043;SDS011;51680;49.806;18.774;2023-04-25T04:56:17;5.53;;;2.88;;
41043;SDS011;51680;49.806;18.774;2023-04-25T04:59:49;3.97;;;2.45;;
41043;SDS011;51680;49.806;18.774;2023-04-25T05:03:11;7.77;;;2.97;;
41043;SDS011;51680;49.806;18.774;2023-04-25T05:06:36;5.50;;;3.00;;
41043;SDS011;51680;49.806;18.774;2023-04-25T05:09:49;5.93;;;2.90;;
41043;SDS011;51680;49.806;18.774;2023-04-25T05:13:14;4.25;;;2.47;;
41043;SDS011;51680;49.806;18.774;2023-04-25T05:16:40;5.75;;;2.67;;
41043;SDS011;51680;49.806;18.774;2023-04-25T05:19:51;6.38;;;2.72;;
41043;SDS011;51680;49.806;18.774;2023-04-25T05:23:29;5.25;;;2.90;;
41043;SDS011;51680;49.806;18.774;2023-04-25T05:26:49;5.38;;;2.78;;
41043;SDS011;51680;49.806;18.774;2023-04-25T05:30:09;4.68;;;2.65;;
41043;SDS011;51680;49.806;18.774;2023-04-25T05:33:34;4.78;;;3.05;;
41043;SDS011;51680;49.806;18.774;2023-04-25T05:36:35;7.30;;;3.30;;
41043;SDS011;51680;49.806;18.774;2023-04-25T05:39:37;4.80;;;3.05;;
41043;SDS011;51680;49.806;18.774;2023-04-25T05:42:45;5.90;;;3.38;;
41043;SDS011;51680;49.806;18.774;2023-04-25T05:46:05;7.53;;;3.42;;
41043;SDS011;51680;49.806;18.774;2023-04-25T05:49:40;6.18;;;3.38;;
41043;SDS011;51680;49.806;18.774;2023-04-25T05:53:06;5.15;;;3.47;;
41043;SDS011;51680;49.806;18.774;2023-04-25T05:56:14;6.63;;;3.45;;
41043;SDS011;51680;49.806;18.774;2023-04-25T05:59:16;6.20;;;3.72;;
41043;SDS011;51680;49.806;18.774;2023-04-25T06:02:18;5.10;;;3.28;;
41043;SDS011;51680;49.806;18.774;2023-04-25T06:05:23;8.80;;;4.13;;
41043;SDS011;51680;49.806;18.774;2023-04-25T06:08:26;5.88;;;3.83;;
41043;SDS011;51680;49.806;18.774;2023-04-25T06:11:27;7.47;;;3.13;;
41043;SDS011;51680;49.806;18.774;2023-04-25T06:14:30;5.78;;;3.55;;
41043;SDS011;51680;49.806;18.774;2023-04-25T06:17:32;8.32;;;3.70;;
41043;SDS011;51680;49.806;18.774;2023-04-25T06:20:36;6.38;;;4.00;;
41043;SDS011;51680;49.806;18.774;2023-04-25T06:23:37;7.83;;;3.50;;
41043;SDS011;51680;49.806;18.774;2023-04-25T06:26:41;7.32;;;3.92;;
41043;SDS011;51680;49.806;18.774;2023-04-25T06:29:44;8.15;;;3.80;;
41043;SDS011;51680;49.806;18.774;2023-04-25T06:32:45;5.28;;;3.65;;
41043;SDS011;51680;49.806;18.774;2023-04-25T06:35:49;6.57;;;3.80;;
41043;SDS011;51680;49.806;18.774;2023-04-25T06:38:55;8.40;;;3.97;;
41043;SDS011;51680;49.806;18.774;2023-04-25T06:41:57;7.10;;;4.40;;
41043;SDS011;51680;49.806;18.774;2023-04-25T06:45:25;8.68;;;3.90;;
41043;SDS011;51680;49.806;18.774;2023-04-25T06:48:27;8.23;;;4.47;;
41043;SDS011;51680;49.806;18.774;2023-04-25T06:51:31;6.40;;;4.25;;
41043;SDS011;51680;49.806;18.774;2023-04-25T06:54:33;9.30;;;4.57;;
41043;SDS011;51680;49.806;18.774;2023-04-25T06:57:43;8.43;;;4.85;;
41043;SDS011;51680;49.806;18.774;2023-04-25T07:01:05;8.60;;;4.80;;
41043;SDS011;51680;49.806;18.774;2023-04-25T07:04:07;7.43;;;4.20;;
41043;SDS011;51680;49.806;18.774;2023-04-25T07:07:14;7.63;;;4.50;;
41043;SDS011;51680;49.806;18.774;2023-04-25T07:10:26;7.37;;;4.20;;
41043;SDS011;51680;49.806;18.774;2023-04-25T07:13:28;7.20;;;3.97;;
41043;SDS011;51680;49.806;18.774;2023-04-25T07:16:30;7.35;;;4.20;;
41043;SDS011;51680;49.806;18.774;2023-04-25T07:19:33;8.27;;;4.00;;
41043;SDS011;51680;49.806;18.774;2023-04-25T07:22:37;12.82;;;4.45;;
41043;SDS011;51680;49.806;18.774;2023-04-25T07:25:39;7.82;;;3.95;;
41043;SDS011;51680;49.806;18.774;2023-04-25T07:28:42;7.95;;;3.80;;
41043;SDS011;51680;49.806;18.774;2023-04-25T07:31:44;9.57;;;4.10;;
41043;SDS011;51680;49.806;18.774;2023-04-25T07:34:47;6.97;;;3.92;;
41043;SDS011;51680;49.806;18.774;2023-04-25T07:37:50;6.30;;;3.80;;
41043;SDS011;51680;49.806;18.774;2023-04-25T07:40:53;8.63;;;4.40;;
41043;SDS011;51680;49.806;18.774;2023-04-25T07:43:56;6.82;;;4.22;;
41043;SDS011;51680;49.806;18.774;2023-04-25T07:46:58;6.90;;;3.78;;
41043;SDS011;51680;49.806;18.774;2023-04-25T07:50:01;6.70;;;3.80;;
41043;SDS011;51680;49.806;18.774;2023-04-25T07:53:06;7.53;;;3.80;;
41043;SDS011;51680;49.806;18.774;2023-04-25T07:56:15;8.73;;;3.85;;
41043;SDS011;51680;49.806;18.774;2023-04-25T07:59:20;7.95;;;4.20;;
41043;SDS011;51680;49.806;18.774;2023-04-25T08:02:22;7.40;;;4.43;;
41043;SDS011;51680;49.806;18.774;2023-04-25T08:05:45;5.80;;;3.55;;
41043;SDS011;51680;49.806;18.774;2023-04-25T08:08:49;8.85;;;3.30;;
41043;SDS011;51680;49.806;18.774;2023-04-25T08:11:53;9.35;;;4.07;;
41043;SDS011;51680;49.806;18.774;2023-04-25T08:15:03;7.28;;;3.55;;
41043;SDS011;51680;49.806;18.774;2023-04-25T08:18:09;8.77;;;3.95;;
41043;SDS011;51680;49.806;18.774;2023-04-25T08:21:11;6.28;;;3.92;;
41043;SDS011;51680;49.806;18.774;2023-04-25T08:24:15;9.10;;;3.70;;
41043;SDS011;51680;49.806;18.774;2023-04-25T08:30:19;7.90;;;4.07;;
41043;SDS011;51680;49.806;18.774;2023-04-25T08:33:21;5.80;;;3.50;;
41043;SDS011;51680;49.806;18.774;2023-04-25T08:36:33;13.13;;;5.07;;
41043;SDS011;51680;49.806;18.774;2023-04-25T08:39:36;11.55;;;4.38;;
41043;SDS011;51680;49.806;18.774;2023-04-25T08:42:57;9.13;;;4.07;;
41043;SDS011;51680;49.806;18.774;2023-04-25T08:45:59;7.72;;;3.92;;
41043;SDS011;51680;49.806;18.774;2023-04-25T08:49:25;8.20;;;3.95;;
41043;SDS011;51680;49.806;18.774;2023-04-25T08:52:27;5.15;;;3.22;;
41043;SDS011;51680;49.806;18.774;2023-04-25T08:55:35;9.02;;;3.88;;
41043;SDS011;51680;49.806;18.774;2023-04-25T08:58:39;9.43;;;4.20;;
41043;SDS011;51680;49.806;18.774;2023-04-25T09:01:41;7.15;;;3.40;;
41043;SDS011;51680;49.806;18.774;2023-04-25T09:04:43;5.68;;;3.25;;
41043;SDS011;51680;49.806;18.774;2023-04-25T09:07:47;8.75;;;3.42;;
41043;SDS011;51680;49.806;18.774;2023-04-25T09:10:50;7.68;;;3.67;;
41043;SDS011;51680;49.806;18.774;2023-04-25T09:13:52;8.13;;;3.57;;
41043;SDS011;51680;49.806;18.774;2023-04-25T09:17:30;7.03;;;3.80;;
41043;SDS011;51680;49.806;18.774;2023-04-25T09:20:34;7.55;;;2.78;;
41043;SDS011;51680;49.806;18.774;2023-04-25T09:23:43;4.32;;;2.13;;
41043;SDS011;51680;49.806;18.774;2023-04-25T09:26:48;5.25;;;2.17;;
41043;SDS011;51680;49.806;18.774;2023-04-25T09:29:56;4.18;;;2.03;;
41043;SDS011;51680;49.806;18.774;2023-04-25T09:33:03;5.38;;;2.90;;
41043;SDS011;51680;49.806;18.774;2023-04-25T09:36:06;4.22;;;2.50;;
41043;SDS011;51680;49.806;18.774;2023-04-25T09:39:29;4.47;;;2.20;;
41043;SDS011;51680;49.806;18.774;2023-04-25T09:42:54;5.97;;;2.90;;
41043;SDS011;51680;49.806;18.774;2023-04-25T09:45:58;6.05;;;2.78;;
41043;SDS011;51680;49.806;18.774;2023-04-25T09:49:06;8.93;;;3.38;;
41043;SDS011;51680;49.806;18.774;2023-04-25T09:52:17;4.38;;;2.47;;
41043;SDS011;51680;49.806;18.774;2023-04-25T09:55:36;4.18;;;2.53;;
41043;SDS011;51680;49.806;18.774;2023-04-25T09:58:40;5.13;;;2.72;;
41043;SDS011;51680;49.806;18.774;2023-04-25T10:01:44;5.20;;;2.90;;
41043;SDS011;51680;49.806;18.774;2023-04-25T10:04:53;5.63;;;3.28;;
41043;SDS011;51680;49.806;18.774;2023-04-25T10:08:02;6.50;;;3.03;;
41043;SDS011;51680;49.806;18.774;2023-04-25T10:11:05;6.60;;;3.03;;
41043;SDS011;51680;49.806;18.774;2023-04-25T10:14:09;5.75;;;3.05;;
41043;SDS011;51680;49.806;18.774;2023-04-25T10:17:12;7.80;;;3.13;;
41043;SDS011;51680;49.806;18.774;2023-04-25T10:20:14;5.95;;;3.03;;
41043;SDS011;51680;49.806;18.774;2023-04-25T10:23:15;6.07;;;2.80;;
41043;SDS011;51680;49.806;18.774;2023-04-25T10:26:18;6.07;;;3.40;;
41043;SDS011;51680;49.806;18.774;2023-04-25T10:29:25;5.53;;;3.50;;
41043;SDS011;51680;49.806;18.774;2023-04-25T10:32:27;5.88;;;2.80;;
41043;SDS011;51680;49.806;18.774;2023-04-25T10:35:29;5.10;;;2.80;;
41043;SDS011;51680;49.806;18.774;2023-04-25T10:38:32;7.93;;;2.90;;
41043;SDS011;51680;49.806;18.774;2023-04-25T10:41:47;8.25;;;2.95;;
41043;SDS011;51680;49.806;18.774;2023-04-25T10:45:02;6.13;;;2.85;;
41043;SDS011;51680;49.806;18.774;2023-04-25T10:48:12;4.70;;;2.40;;
41043;SDS011;51680;49.806;18.774;2023-04-25T10:51:27;7.68;;;2.90;;
41043;SDS011;51680;49.806;18.774;2023-04-25T10:57:34;5.88;;;2.80;;
41043;SDS011;51680;49.806;18.774;2023-04-25T11:00:39;5.00;;;2.60;;
41043;SDS011;51680;49.806;18.774;2023-04-25T11:03:42;5.47;;;3.38;;
41043;SDS011;51680;49.806;18.774;2023-04-25T11:06:46;4.60;;;2.70;;
41043;SDS011;51680;49.806;18.774;2023-04-25T11:10:00;4.57;;;2.70;;
41043;SDS011;51680;49.806;18.774;2023-04-25T11:13:03;5.47;;;2.95;;
41043;SDS011;51680;49.806;18.774;2023-04-25T11:16:08;5.25;;;3.00;;
41043;SDS011;51680;49.806;18.774;2023-04-25T11:19:10;10.05;;;3.30;;
41043;SDS011;51680;49.806;18.774;2023-04-25T11:22:11;7.10;;;3.10;;
41043;SDS011;51680;49.806;18.774;2023-04-25T11:25:14;6.13;;;2.92;;
41043;SDS011;51680;49.806;18.774;2023-04-25T11:28:20;9.50;;;3.17;;
41043;SDS011;51680;49.806;18.774;2023-04-25T11:31:24;5.18;;;2.83;;
41043;SDS011;51680;49.806;18.774;2023-04-25T11:34:26;6.95;;;2.60;;
41043;SDS011;51680;49.806;18.774;2023-04-25T11:37:31;6.82;;;3.67;;
41043;SDS011;51680;49.806;18.774;2023-04-25T11:40:33;6.18;;;3.85;;
41043;SDS011;51680;49.806;18.774;2023-04-25T11:43:35;10.57;;;4.57;;
41043;SDS011;51680;49.806;18.774;2023-04-25T11:46:38;8.48;;;4.38;;
41043;SDS011;51680;49.806;18.774;2023-04-25T11:49:40;7.93;;;3.33;;
41043;SDS011;51680;49.806;18.774;2023-04-25T11:52:42;5.07;;;2.60;;
41043;SDS011;51680;49.806;18.774;2023-04-25T11:55:45;6.13;;;2.90;;
41043;SDS011;51680;49.806;18.774;2023-04-25T11:58:53;5.97;;;2.90;;
41043;SDS011;51680;49.806;18.774;2023-04-25T12:01:57;5.40;;;2.95;;
41043;SDS011;51680;49.806;18.774;2023-04-25T12:05:01;6.60;;;3.20;;
41043;SDS011;51680;49.806;18.774;2023-04-25T12:08:13;5.68;;;2.90;;
41043;SDS011;51680;49.806;18.774;2023-04-25T12:11:20;4.82;;;2.55;;
41043;SDS011;51680;49.806;18.774;2023-04-25T12:14:22;4.57;;;2.38;;
41043;SDS011;51680;49.806;18.774;2023-04-25T12:17:28;6.53;;;2.58;;
41043;SDS011;51680;49.806;18.774;2023-04-25T12:20:31;3.42;;;2.22;;
41043;SDS011;51680;49.806;18.774;2023-04-25T12:23:32;5.72;;;2.90;;
41043;SDS011;51680;49.806;18.774;2023-04-25T12:26:45;4.90;;;2.78;;
41043;SDS011;51680;49.806;18.774;2023-04-25T12:29:51;6.72;;;3.30;;
41043;SDS011;51680;49.806;18.774;2023-04-25T12:32:55;7.82;;;3.25;;
41043;SDS011;51680;49.806;18.774;2023-04-25T12:35:57;5.88;;;3.10;;
41043;SDS011;51680;49.806;18.774;2023-04-25T12:39:00;6.30;;;3.03;;
41043;SDS011;51680;49.806;18.774;2023-04-25T12:42:04;5.82;;;2.80;;
41043;SDS011;51680;49.806;18.774;2023-04-25T12:45:08;6.63;;;2.80;;
41043;SDS011;51680;49.806;18.774;2023-04-25T12:48:11;5.97;;;2.40;;
41043;SDS011;51680;49.806;18.774;2023-04-25T12:51:13;6.43;;;2.73;;
41043;SDS011;51680;49.806;18.774;2023-04-25T12:54:15;7.32;;;2.88;;
41043;SDS011;51680;49.806;18.774;2023-04-25T12:57:17;6.82;;;3.05;;
41043;SDS011;51680;49.806;18.774;2023-04-25T13:00:18;7.70;;;2.70;;
41043;SDS011;51680;49.806;18.774;2023-04-25T13:03:22;5.03;;;2.60;;
41043;SDS011;51680;49.806;18.774;2023-04-25T13:06:24;6.10;;;2.70;;
41043;SDS011;51680;49.806;18.774;2023-04-25T13:09:26;5.97;;;2.90;;
41043;SDS011;51680;49.806;18.774;2023-04-25T13:12:28;7.38;;;3.15;;
41043;SDS011;51680;49.806;18.774;2023-04-25T13:15:30;6.22;;;2.95;;
41043;SDS011;51680;49.806;18.774;2023-04-25T13:18:33;6.43;;;3.60;;
41043;SDS011;51680;49.806;18.774;2023-04-25T13:21:35;8.38;;;3.67;;
41043;SDS011;51680;49.806;18.774;2023-04-25T13:24:37;7.78;;;3.17;;
41043;SDS011;51680;49.806;18.774;2023-04-25T13:27:39;6.15;;;2.88;;
41043;SDS011;51680;49.806;18.774;2023-04-25T13:30:41;5.95;;;3.38;;
41043;SDS011;51680;49.806;18.774;2023-04-25T13:33:45;7.77;;;4.00;;
41043;SDS011;51680;49.806;18.774;2023-04-25T13:36:47;6.05;;;3.78;;
41043;SDS011;51680;49.806;18.774;2023-04-25T13:39:48;9.25;;;4.57;;
41043;SDS011;51680;49.806;18.774;2023-04-25T13:42:51;7.03;;;3.92;;
41043;SDS011;51680;49.806;18.774;2023-04-25T13:45:52;8.63;;;4.53;;
41043;SDS011;51680;49.806;18.774;2023-04-25T13:48:56;6.97;;;4.22;;
41043;SDS011;51680;49.806;18.774;2023-04-25T13:51:59;7.07;;;4.50;;
41043;SDS011;51680;49.806;18.774;2023-04-25T13:55:00;7.45;;;4.38;;
41043;SDS011;51680;49.806;18.774;2023-04-25T13:58:03;8.57;;;4.57;;
41043;SDS011;51680;49.806;18.774;2023-04-25T14:01:07;7.07;;;4.30;;
41043;SDS011;51680;49.806;18.774;2023-04-25T14:04:10;7.90;;;3.92;;
41043;SDS011;51680;49.806;18.774;2023-04-25T14:07:13;9.57;;;4.38;;
41043;SDS011;51680;49.806;18.774;2023-04-25T14:10:17;9.35;;;4.68;;
41043;SDS011;51680;49.806;18.774;2023-04-25T14:13:19;7.35;;;4.03;;
41043;SDS011;51680;49.806;18.774;2023-04-25T14:16:20;7.55;;;3.97;;
41043;SDS011;51680;49.806;18.774;2023-04-25T14:19:42;8.82;;;4.10;;
41043;SDS011;51680;49.806;18.774;2023-04-25T14:22:45;9.77;;;4.68;;
41043;SDS011;51680;49.806;18.774;2023-04-25T14:25:47;10.93;;;4.10;;
41043;SDS011;51680;49.806;18.774;2023-04-25T14:28:49;6.63;;;4.20;;
41043;SDS011;51680;49.806;18.774;2023-04-25T14:31:51;8.68;;;4.00;;
41043;SDS011;51680;49.806;18.774;2023-04-25T14:34:55;8.13;;;4.28;;
41043;SDS011;51680;49.806;18.774;2023-04-25T14:37:58;9.73;;;3.77;;
41043;SDS011;51680;49.806;18.774;2023-04-25T14:40:59;8.77;;;4.03;;
41043;SDS011;51680;49.806;18.774;2023-04-25T14:44:01;6.53;;;3.70;;
41043;SDS011;51680;49.806;18.774;2023-04-25T14:47:03;6.30;;;3.75;;
41043;SDS011;51680;49.806;18.774;2023-04-25T14:50:07;8.05;;;3.78;;
41043;SDS011;51680;49.806;18.774;2023-04-25T14:53:09;8.40;;;3.65;;
41043;SDS011;51680;49.806;18.774;2023-04-25T14:56:11;7.70;;;3.92;;
41043;SDS011;51680;49.806;18.774;2023-04-25T14:59:13;6.75;;;3.60;;
41043;SDS011;51680;49.806;18.774;2023-04-25T15:02:15;6.22;;;3.90;;
41043;SDS011;51680;49.806;18.774;2023-04-25T15:05:18;7.28;;;3.65;;
41043;SDS011;51680;49.806;18.774;2023-04-25T15:08:20;8.00;;;3.80;;
41043;SDS011;51680;49.806;18.774;2023-04-25T15:11:22;7.68;;;3.65;;
41043;SDS011;51680;49.806;18.774;2023-04-25T15:14:43;8.75;;;4.13;;
41043;SDS011;51680;49.806;18.774;2023-04-25T15:17:44;10.23;;;3.95;;
41043;SDS011;51680;49.806;18.774;2023-04-25T15:20:48;9.35;;;4.05;;
41043;SDS011;51680;49.806;18.774;2023-04-25T15:23:50;7.63;;;4.13;;
41043;SDS011;51680;49.806;18.774;2023-04-25T15:26:52;7.63;;;3.72;;
41043;SDS011;51680;49.806;18.774;2023-04-25T15:29:54;6.30;;;3.50;;
41043;SDS011;51680;49.806;18.774;2023-04-25T15:32:55;11.25;;;3.58;;
41043;SDS011;51680;49.806;18.774;2023-04-25T15:35:58;7.82;;;4.20;;
41043;SDS011;51680;49.806;18.774;2023-04-25T15:39:03;9.95;;;4.70;;
41043;SDS011;51680;49.806;18.774;2023-04-25T15:42:05;8.20;;;4.20;;
41043;SDS011;51680;49.806;18.774;2023-04-25T15:45:07;11.48;;;5.15;;
41043;SDS011;51680;49.806;18.774;2023-04-25T15:48:10;9.02;;;5.10;;
41043;SDS011;51680;49.806;18.774;2023-04-25T15:51:32;8.73;;;4.40;;
41043;SDS011;51680;49.806;18.774;2023-04-25T15:54:33;8.85;;;3.90;;
41043;SDS011;51680;49.806;18.774;2023-04-25T15:57:54;8.77;;;3.53;;
41043;SDS011;51680;49.806;18.774;2023-04-25T16:00:56;8.05;;;3.58;;
41043;SDS011;51680;49.806;18.774;2023-04-25T16:03:58;7.68;;;3.22;;
41043;SDS011;51680;49.806;18.774;2023-04-25T16:07:01;7.07;;;3.25;;
41043;SDS011;51680;49.806;18.774;2023-04-25T16:13:06;13.35;;;5.68;;
41043;SDS011;51680;49.806;18.774;2023-04-25T16:16:08;10.60;;;5.72;;
41043;SDS011;51680;49.806;18.774;2023-04-25T16:19:10;9.68;;;4.93;;
41043;SDS011;51680;49.806;18.774;2023-04-25T16:22:13;9.68;;;5.80;;
41043;SDS011;51680;49.806;18.774;2023-04-25T16:28:17;7.10;;;5.32;;
41043;SDS011;51680;49.806;18.774;2023-04-25T16:31:19;10.20;;;4.97;;
41043;SDS011;51680;49.806;18.774;2023-04-25T16:34:20;10.02;;;5.32;;
41043;SDS011;51680;49.806;18.774;2023-04-25T16:37:24;8.55;;;5.30;;
41043;SDS011;51680;49.806;18.774;2023-04-25T16:40:27;12.05;;;5.78;;
41043;SDS011;51680;49.806;18.774;2023-04-25T16:43:28;8.85;;;5.13;;
41043;SDS011;51680;49.806;18.774;2023-04-25T16:46:31;9.43;;;5.35;;
41043;SDS011;51680;49.806;18.774;2023-04-25T16:49:32;9.48;;;5.00;;
41043;SDS011;51680;49.806;18.774;2023-04-25T16:52:35;9.52;;;5.82;;
41043;SDS011;51680;49.806;18.774;2023-04-25T16:55:37;11.60;;;5.30;;
41043;SDS011;51680;49.806;18.774;2023-04-25T16:58:39;17.33;;;6.50;;
41043;SDS011;51680;49.806;18.774;2023-04-25T17:01:40;11.52;;;6.57;;
41043;SDS011;51680;49.806;18.774;2023-04-25T17:04:42;9.77;;;5.40;;
41043;SDS011;51680;49.806;18.774;2023-04-25T17:07:45;10.85;;;5.80;;
41043;SDS011;51680;49.806;18.774;2023-04-25T17:10:47;17.33;;;6.93;;
41043;SDS011;51680;49.806;18.774;2023-04-25T17:13:49;10.07;;;6.85;;
41043;SDS011;51680;49.806;18.774;2023-04-25T17:16:51;12.43;;;7.20;;
41043;SDS011;51680;49.806;18.774;2023-04-25T17:19:53;13.65;;;6.70;;
41043;SDS011;51680;49.806;18.774;2023-04-25T17:23:14;13.25;;;7.10;;
41043;SDS011;51680;49.806;18.774;2023-04-25T17:26:16;9.77;;;6.57;;
41043;SDS011;51680;49.806;18.774;2023-04-25T17:29:18;12.10;;;7.10;;
41043;SDS011;51680;49.806;18.774;2023-04-25T17:32:22;13.65;;;7.70;;
41043;SDS011;51680;49.806;18.774;2023-04-25T17:35:24;12.27;;;7.50;;
41043;SDS011;51680;49.806;18.774;2023-04-25T17:38:28;13.63;;;7.70;;
41043;SDS011;51680;49.806;18.774;2023-04-25T17:41:30;11.27;;;7.43;;
41043;SDS011;51680;49.806;18.774;2023-04-25T17:44:32;14.93;;;6.60;;
41043;SDS011;51680;49.806;18.774;2023-04-25T17:47:34;12.43;;;6.75;;
41043;SDS011;51680;49.806;18.774;2023-04-25T17:50:36;11.75;;;6.97;;
41043;SDS011;51680;49.806;18.774;2023-04-25T17:53:39;12.07;;;7.50;;
41043;SDS011;51680;49.806;18.774;2023-04-25T17:56:41;16.75;;;6.90;;
41043;SDS011;51680;49.806;18.774;2023-04-25T17:59:44;19.60;;;6.72;;
41043;SDS011;51680;49.806;18.774;2023-04-25T18:02:45;15.20;;;7.82;;
41043;SDS011;51680;49.806;18.774;2023-04-25T18:05:50;16.27;;;8.50;;
41043;SDS011;51680;49.806;18.774;2023-04-25T18:08:53;11.82;;;8.07;;
41043;SDS011;51680;49.806;18.774;2023-04-25T18:11:56;14.00;;;8.02;;
41043;SDS011;51680;49.806;18.774;2023-04-25T18:14:59;17.60;;;9.30;;
41043;SDS011;51680;49.806;18.774;2023-04-25T18:18:01;15.05;;;8.50;;
41043;SDS011;51680;49.806;18.774;2023-04-25T18:21:10;18.45;;;8.75;;
41043;SDS011;51680;49.806;18.774;2023-04-25T18:24:13;15.70;;;8.65;;
41043;SDS011;51680;49.806;18.774;2023-04-25T18:27:17;15.82;;;8.52;;
41043;SDS011;51680;49.806;18.774;2023-04-25T18:30:19;16.10;;;8.88;;
41043;SDS011;51680;49.806;18.774;2023-04-25T18:33:20;14.90;;;9.32;;